Terminal Aerodrome Forecast
Issued by NWS

Home | Current Version | Previous Version | Graphics & Text | Print | Product List | Glossary On
Versions: 1 2 3 4 5 6 7 8 9 10 11 12 13 14 15 16 17 18 19 20 21 22 23 24 25 26 27 28 29
515
FTUS43 KBIS 171727
TAFJMS
TAF
KJMS 171727Z 1718/1818 11012KT P6SM VCTS BKN080CB
      TEMPO 1718/1720 -SHRA OVC050
     FM180100 09009KT 6SM SHRA VCTS OVC120CB
     FM180700 11008KT P6SM VCTS OVC100CB WS020/18035KT
     FM181200 14008KT 6SM -SHRA OVC090=

USA.gov is the U.S. government's official web portal to all federal, state and local government web resources and services.